sensor_id;sensor_type;location;lat;lon;timestamp;P1;durP1;ratioP1;P2;durP2;ratioP2
21639;SDS011;10981;45.462;10.974;2022-09-12T00:01:26;4.32;;;2.28;;
21639;SDS011;10981;45.462;10.974;2022-09-12T00:03:55;3.20;;;2.10;;
21639;SDS011;10981;45.462;10.974;2022-09-12T00:06:29;3.45;;;2.17;;
21639;SDS011;10981;45.462;10.974;2022-09-12T00:09:01;2.55;;;2.10;;
21639;SDS011;10981;45.462;10.974;2022-09-12T00:11:38;3.50;;;2.28;;
21639;SDS011;10981;45.462;10.974;2022-09-12T00:14:10;4.55;;;1.90;;
21639;SDS011;10981;45.462;10.974;2022-09-12T00:16:40;4.75;;;2.17;;
21639;SDS011;10981;45.462;10.974;2022-09-12T00:19:10;2.78;;;2.50;;
21639;SDS011;10981;45.462;10.974;2022-09-12T00:21:38;3.50;;;2.65;;
21639;SDS011;10981;45.462;10.974;2022-09-12T00:24:08;2.40;;;2.20;;
21639;SDS011;10981;45.462;10.974;2022-09-12T00:26:36;3.42;;;2.40;;
21639;SDS011;10981;45.462;10.974;2022-09-12T00:29:05;2.70;;;2.50;;
21639;SDS011;10981;45.462;10.974;2022-09-12T00:31:33;3.92;;;2.50;;
21639;SDS011;10981;45.462;10.974;2022-09-12T00:34:01;4.60;;;2.42;;
21639;SDS011;10981;45.462;10.974;2022-09-12T00:36:29;7.32;;;2.45;;
21639;SDS011;10981;45.462;10.974;2022-09-12T00:38:58;2.40;;;2.20;;
21639;SDS011;10981;45.462;10.974;2022-09-12T00:41:28;2.97;;;2.25;;
21639;SDS011;10981;45.462;10.974;2022-09-12T00:46:49;5.82;;;2.80;;
21639;SDS011;10981;45.462;10.974;2022-09-12T00:52:12;6.18;;;2.88;;
21639;SDS011;10981;45.462;10.974;2022-09-12T00:54:52;8.80;;;2.50;;
21639;SDS011;10981;45.462;10.974;2022-09-12T00:57:43;6.78;;;2.85;;
21639;SDS011;10981;45.462;10.974;2022-09-12T01:00:21;9.35;;;4.28;;
21639;SDS011;10981;45.462;10.974;2022-09-12T01:02:56;8.05;;;2.92;;
21639;SDS011;10981;45.462;10.974;2022-09-12T01:05:35;8.88;;;2.33;;
21639;SDS011;10981;45.462;10.974;2022-09-12T01:08:06;5.32;;;2.40;;
21639;SDS011;10981;45.462;10.974;2022-09-12T01:10:34;3.75;;;2.45;;
21639;SDS011;10981;45.462;10.974;2022-09-12T01:13:08;4.57;;;2.20;;
21639;SDS011;10981;45.462;10.974;2022-09-12T01:15:37;3.85;;;2.15;;
21639;SDS011;10981;45.462;10.974;2022-09-12T01:18:11;4.70;;;2.40;;
21639;SDS011;10981;45.462;10.974;2022-09-12T01:23:38;3.38;;;2.30;;
21639;SDS011;10981;45.462;10.974;2022-09-12T01:32:19;5.07;;;2.92;;
21639;SDS011;10981;45.462;10.974;2022-09-12T01:34:59;3.38;;;2.45;;
21639;SDS011;10981;45.462;10.974;2022-09-12T01:37:41;3.70;;;2.28;;
21639;SDS011;10981;45.462;10.974;2022-09-12T01:40:33;3.88;;;2.35;;
21639;SDS011;10981;45.462;10.974;2022-09-12T01:46:20;3.88;;;2.60;;
21639;SDS011;10981;45.462;10.974;2022-09-12T01:49:26;5.88;;;2.30;;
21639;SDS011;10981;45.462;10.974;2022-09-12T01:51:56;6.32;;;2.70;;
21639;SDS011;10981;45.462;10.974;2022-09-12T01:57:07;3.67;;;2.55;;
21639;SDS011;10981;45.462;10.974;2022-09-12T01:59:43;2.78;;;2.50;;
21639;SDS011;10981;45.462;10.974;2022-09-12T02:07:32;2.28;;;2.08;;
21639;SDS011;10981;45.462;10.974;2022-09-12T02:10:12;4.03;;;2.33;;
21639;SDS011;10981;45.462;10.974;2022-09-12T02:12:57;12.50;;;4.30;;
21639;SDS011;10981;45.462;10.974;2022-09-12T02:15:37;2.42;;;2.22;;
21639;SDS011;10981;45.462;10.974;2022-09-12T02:18:12;3.83;;;2.50;;
21639;SDS011;10981;45.462;10.974;2022-09-12T02:20:44;4.40;;;2.47;;
21639;SDS011;10981;45.462;10.974;2022-09-12T02:23:19;3.00;;;2.63;;
21639;SDS011;10981;45.462;10.974;2022-09-12T02:25:56;5.35;;;2.10;;
21639;SDS011;10981;45.462;10.974;2022-09-12T02:28:39;2.65;;;2.08;;
21639;SDS011;10981;45.462;10.974;2022-09-12T02:34:09;4.35;;;2.45;;
21639;SDS011;10981;45.462;10.974;2022-09-12T02:39:53;3.30;;;2.33;;
21639;SDS011;10981;45.462;10.974;2022-09-12T02:42:23;1.90;;;1.80;;
21639;SDS011;10981;45.462;10.974;2022-09-12T02:44:52;2.20;;;1.90;;
21639;SDS011;10981;45.462;10.974;2022-09-12T02:50:12;2.53;;;2.20;;
21639;SDS011;10981;45.462;10.974;2022-09-12T02:52:41;4.07;;;2.58;;
21639;SDS011;10981;45.462;10.974;2022-09-12T02:55:10;3.28;;;2.40;;
21639;SDS011;10981;45.462;10.974;2022-09-12T02:57:39;3.70;;;2.30;;
21639;SDS011;10981;45.462;10.974;2022-09-12T03:00:07;4.90;;;2.03;;
21639;SDS011;10981;45.462;10.974;2022-09-12T03:05:36;4.38;;;2.17;;
21639;SDS011;10981;45.462;10.974;2022-09-12T03:13:58;3.47;;;2.15;;
21639;SDS011;10981;45.462;10.974;2022-09-12T03:22:51;4.15;;;2.05;;
21639;SDS011;10981;45.462;10.974;2022-09-12T03:26:12;4.30;;;2.33;;
21639;SDS011;10981;45.462;10.974;2022-09-12T03:28:23;6.72;;;2.38;;
21639;SDS011;10981;45.462;10.974;2022-09-12T03:30:52;3.08;;;2.42;;
21639;SDS011;10981;45.462;10.974;2022-09-12T03:33:23;2.95;;;2.20;;
21639;SDS011;10981;45.462;10.974;2022-09-12T03:35:52;2.33;;;2.08;;
21639;SDS011;10981;45.462;10.974;2022-09-12T03:38:22;3.97;;;2.13;;
21639;SDS011;10981;45.462;10.974;2022-09-12T03:40:50;2.78;;;2.20;;
21639;SDS011;10981;45.462;10.974;2022-09-12T03:43:21;2.38;;;2.17;;
21639;SDS011;10981;45.462;10.974;2022-09-12T03:45:49;3.45;;;2.38;;
21639;SDS011;10981;45.462;10.974;2022-09-12T03:48:20;5.93;;;2.33;;
21639;SDS011;10981;45.462;10.974;2022-09-12T03:50:48;2.40;;;2.20;;
21639;SDS011;10981;45.462;10.974;2022-09-12T03:53:17;3.60;;;2.15;;
21639;SDS011;10981;45.462;10.974;2022-09-12T03:55:45;2.35;;;2.15;;
21639;SDS011;10981;45.462;10.974;2022-09-12T03:58:13;1.75;;;1.65;;
21639;SDS011;10981;45.462;10.974;2022-09-12T04:00:41;3.90;;;1.92;;
21639;SDS011;10981;45.462;10.974;2022-09-12T04:03:12;3.40;;;2.00;;
21639;SDS011;10981;45.462;10.974;2022-09-12T04:05:40;2.70;;;2.05;;
21639;SDS011;10981;45.462;10.974;2022-09-12T04:08:08;4.20;;;1.90;;
21639;SDS011;10981;45.462;10.974;2022-09-12T04:10:37;3.38;;;2.28;;
21639;SDS011;10981;45.462;10.974;2022-09-12T04:13:05;3.13;;;2.83;;
21639;SDS011;10981;45.462;10.974;2022-09-12T04:15:33;2.90;;;2.47;;
21639;SDS011;10981;45.462;10.974;2022-09-12T04:18:01;4.53;;;1.85;;
21639;SDS011;10981;45.462;10.974;2022-09-12T04:20:32;2.00;;;1.80;;
21639;SDS011;10981;45.462;10.974;2022-09-12T04:23:02;6.97;;;2.65;;
21639;SDS011;10981;45.462;10.974;2022-09-12T04:25:30;5.90;;;2.15;;
21639;SDS011;10981;45.462;10.974;2022-09-12T04:27:58;2.50;;;2.30;;
21639;SDS011;10981;45.462;10.974;2022-09-12T04:30:26;2.58;;;1.98;;
21639;SDS011;10981;45.462;10.974;2022-09-12T04:32:54;4.97;;;2.30;;
21639;SDS011;10981;45.462;10.974;2022-09-12T04:35:23;4.43;;;2.03;;
21639;SDS011;10981;45.462;10.974;2022-09-12T04:37:51;4.47;;;2.30;;
21639;SDS011;10981;45.462;10.974;2022-09-12T04:40:19;5.72;;;2.20;;
21639;SDS011;10981;45.462;10.974;2022-09-12T04:42:47;3.17;;;2.25;;
21639;SDS011;10981;45.462;10.974;2022-09-12T04:45:18;2.72;;;2.20;;
21639;SDS011;10981;45.462;10.974;2022-09-12T04:47:46;2.50;;;2.15;;
21639;SDS011;10981;45.462;10.974;2022-09-12T04:50:14;6.75;;;2.30;;
21639;SDS011;10981;45.462;10.974;2022-09-12T04:52:43;5.82;;;2.20;;
21639;SDS011;10981;45.462;10.974;2022-09-12T04:55:15;3.67;;;2.13;;
21639;SDS011;10981;45.462;10.974;2022-09-12T04:57:44;2.40;;;2.22;;
21639;SDS011;10981;45.462;10.974;2022-09-12T05:00:12;3.08;;;2.38;;
21639;SDS011;10981;45.462;10.974;2022-09-12T05:02:41;4.40;;;2.08;;
21639;SDS011;10981;45.462;10.974;2022-09-12T05:05:09;2.60;;;2.40;;
21639;SDS011;10981;45.462;10.974;2022-09-12T05:07:37;1.92;;;1.80;;
21639;SDS011;10981;45.462;10.974;2022-09-12T05:10:06;3.03;;;2.30;;
21639;SDS011;10981;45.462;10.974;2022-09-12T05:12:35;2.97;;;2.00;;
21639;SDS011;10981;45.462;10.974;2022-09-12T05:15:03;2.95;;;2.25;;
21639;SDS011;10981;45.462;10.974;2022-09-12T05:17:32;15.68;;;4.55;;
21639;SDS011;10981;45.462;10.974;2022-09-12T05:20:00;3.17;;;1.95;;
21639;SDS011;10981;45.462;10.974;2022-09-12T05:22:29;4.88;;;2.50;;
21639;SDS011;10981;45.462;10.974;2022-09-12T05:24:57;3.28;;;2.13;;
21639;SDS011;10981;45.462;10.974;2022-09-12T05:27:25;3.15;;;2.08;;
21639;SDS011;10981;45.462;10.974;2022-09-12T05:29:53;2.35;;;1.80;;
21639;SDS011;10981;45.462;10.974;2022-09-12T05:32:21;3.30;;;2.17;;
21639;SDS011;10981;45.462;10.974;2022-09-12T05:34:49;4.03;;;2.30;;
21639;SDS011;10981;45.462;10.974;2022-09-12T05:37:17;2.50;;;2.17;;
21639;SDS011;10981;45.462;10.974;2022-09-12T05:39:49;4.88;;;2.22;;
21639;SDS011;10981;45.462;10.974;2022-09-12T05:42:19;9.10;;;2.50;;
21639;SDS011;10981;45.462;10.974;2022-09-12T05:44:47;7.13;;;3.25;;
21639;SDS011;10981;45.462;10.974;2022-09-12T05:47:15;4.18;;;2.72;;
21639;SDS011;10981;45.462;10.974;2022-09-12T05:49:43;5.18;;;3.13;;
21639;SDS011;10981;45.462;10.974;2022-09-12T05:52:16;3.25;;;2.67;;
21639;SDS011;10981;45.462;10.974;2022-09-12T05:54:46;5.97;;;2.80;;
21639;SDS011;10981;45.462;10.974;2022-09-12T05:57:14;5.72;;;2.90;;
21639;SDS011;10981;45.462;10.974;2022-09-12T05:59:43;3.60;;;2.72;;
21639;SDS011;10981;45.462;10.974;2022-09-12T06:02:11;6.03;;;3.00;;
21639;SDS011;10981;45.462;10.974;2022-09-12T06:04:39;6.50;;;2.90;;
21639;SDS011;10981;45.462;10.974;2022-09-12T06:07:07;9.32;;;2.92;;
21639;SDS011;10981;45.462;10.974;2022-09-12T06:09:35;6.13;;;3.33;;
21639;SDS011;10981;45.462;10.974;2022-09-12T06:12:04;14.98;;;3.88;;
21639;SDS011;10981;45.462;10.974;2022-09-12T06:14:33;12.70;;;3.38;;
21639;SDS011;10981;45.462;10.974;2022-09-12T06:17:02;11.85;;;3.40;;
21639;SDS011;10981;45.462;10.974;2022-09-12T06:19:30;5.45;;;3.13;;
21639;SDS011;10981;45.462;10.974;2022-09-12T06:21:58;8.10;;;2.65;;
21639;SDS011;10981;45.462;10.974;2022-09-12T06:24:27;4.65;;;2.50;;
21639;SDS011;10981;45.462;10.974;2022-09-12T06:26:55;6.38;;;2.75;;
21639;SDS011;10981;45.462;10.974;2022-09-12T06:29:23;5.90;;;2.35;;
21639;SDS011;10981;45.462;10.974;2022-09-12T06:31:55;7.75;;;2.20;;
21639;SDS011;10981;45.462;10.974;2022-09-12T06:34:23;5.85;;;3.42;;
21639;SDS011;10981;45.462;10.974;2022-09-12T06:36:53;2.92;;;1.90;;
21639;SDS011;10981;45.462;10.974;2022-09-12T06:39:21;4.07;;;2.10;;
21639;SDS011;10981;45.462;10.974;2022-09-12T06:41:50;5.38;;;2.30;;
21639;SDS011;10981;45.462;10.974;2022-09-12T06:44:32;7.22;;;2.28;;
21639;SDS011;10981;45.462;10.974;2022-09-12T06:47:00;6.20;;;2.00;;
21639;SDS011;10981;45.462;10.974;2022-09-12T06:49:28;4.57;;;2.88;;
21639;SDS011;10981;45.462;10.974;2022-09-12T06:51:57;3.85;;;2.13;;
21639;SDS011;10981;45.462;10.974;2022-09-12T06:54:25;2.97;;;2.13;;
21639;SDS011;10981;45.462;10.974;2022-09-12T06:56:53;4.07;;;2.00;;
21639;SDS011;10981;45.462;10.974;2022-09-12T06:59:21;2.95;;;2.40;;
21639;SDS011;10981;45.462;10.974;2022-09-12T07:01:50;5.20;;;1.95;;
21639;SDS011;10981;45.462;10.974;2022-09-12T07:04:19;4.60;;;2.05;;
21639;SDS011;10981;45.462;10.974;2022-09-12T07:06:47;3.33;;;2.00;;
21639;SDS011;10981;45.462;10.974;2022-09-12T07:09:15;6.85;;;2.50;;
21639;SDS011;10981;45.462;10.974;2022-09-12T07:11:43;2.67;;;2.17;;
21639;SDS011;10981;45.462;10.974;2022-09-12T07:14:12;3.80;;;2.00;;
21639;SDS011;10981;45.462;10.974;2022-09-12T07:16:41;4.30;;;1.88;;
21639;SDS011;10981;45.462;10.974;2022-09-12T07:19:09;5.00;;;1.83;;
21639;SDS011;10981;45.462;10.974;2022-09-12T07:21:38;3.65;;;2.03;;
21639;SDS011;10981;45.462;10.974;2022-09-12T07:24:07;2.35;;;1.90;;
21639;SDS011;10981;45.462;10.974;2022-09-12T07:26:37;3.45;;;1.85;;
21639;SDS011;10981;45.462;10.974;2022-09-12T07:29:12;4.60;;;2.03;;
21639;SDS011;10981;45.462;10.974;2022-09-12T07:32:03;9.00;;;2.03;;
21639;SDS011;10981;45.462;10.974;2022-09-12T07:34:32;5.05;;;2.40;;
21639;SDS011;10981;45.462;10.974;2022-09-12T07:37:01;3.03;;;2.10;;
21639;SDS011;10981;45.462;10.974;2022-09-12T07:39:29;3.38;;;2.00;;
21639;SDS011;10981;45.462;10.974;2022-09-12T07:41:58;7.88;;;2.30;;
21639;SDS011;10981;45.462;10.974;2022-09-12T07:44:26;3.75;;;2.03;;
21639;SDS011;10981;45.462;10.974;2022-09-12T07:46:55;3.75;;;2.60;;
21639;SDS011;10981;45.462;10.974;2022-09-12T07:49:23;3.75;;;2.58;;
21639;SDS011;10981;45.462;10.974;2022-09-12T07:51:51;4.07;;;2.53;;
21639;SDS011;10981;45.462;10.974;2022-09-12T07:54:20;5.28;;;2.60;;
21639;SDS011;10981;45.462;10.974;2022-09-12T07:56:48;5.35;;;2.80;;
21639;SDS011;10981;45.462;10.974;2022-09-12T07:59:16;4.28;;;2.92;;
21639;SDS011;10981;45.462;10.974;2022-09-12T08:02:04;4.97;;;2.78;;
21639;SDS011;10981;45.462;10.974;2022-09-12T08:04:42;8.38;;;2.85;;
21639;SDS011;10981;45.462;10.974;2022-09-12T08:07:10;5.40;;;2.70;;
21639;SDS011;10981;45.462;10.974;2022-09-12T08:09:38;3.53;;;2.55;;
21639;SDS011;10981;45.462;10.974;2022-09-12T08:12:07;6.20;;;2.95;;
21639;SDS011;10981;45.462;10.974;2022-09-12T08:14:35;7.53;;;2.38;;
21639;SDS011;10981;45.462;10.974;2022-09-12T08:17:03;4.72;;;2.30;;
21639;SDS011;10981;45.462;10.974;2022-09-12T08:19:32;6.15;;;2.20;;
21639;SDS011;10981;45.462;10.974;2022-09-12T08:22:00;4.47;;;2.10;;
21639;SDS011;10981;45.462;10.974;2022-09-12T08:24:28;6.35;;;2.40;;
21639;SDS011;10981;45.462;10.974;2022-09-12T08:26:58;5.40;;;2.58;;
21639;SDS011;10981;45.462;10.974;2022-09-12T08:29:26;7.88;;;2.33;;
21639;SDS011;10981;45.462;10.974;2022-09-12T08:31:54;5.15;;;1.98;;
21639;SDS011;10981;45.462;10.974;2022-09-12T08:34:23;5.90;;;2.58;;
21639;SDS011;10981;45.462;10.974;2022-09-12T08:36:52;4.72;;;2.58;;
21639;SDS011;10981;45.462;10.974;2022-09-12T08:39:20;7.15;;;2.20;;
21639;SDS011;10981;45.462;10.974;2022-09-12T08:41:54;3.50;;;2.10;;
21639;SDS011;10981;45.462;10.974;2022-09-12T08:44:36;2.83;;;1.90;;
21639;SDS011;10981;45.462;10.974;2022-09-12T08:47:24;3.15;;;1.92;;
21639;SDS011;10981;45.462;10.974;2022-09-12T08:55:40;2.53;;;1.67;;
21639;SDS011;10981;45.462;10.974;2022-09-12T09:06:20;2.15;;;0.95;;
21639;SDS011;10981;45.462;10.974;2022-09-12T09:11:53;2.90;;;1.08;;
21639;SDS011;10981;45.462;10.974;2022-09-12T09:17:50;3.22;;;1.85;;
21639;SDS011;10981;45.462;10.974;2022-09-12T09:20:29;4.30;;;1.10;;
21639;SDS011;10981;45.462;10.974;2022-09-12T09:25:55;1.90;;;1.13;;
21639;SDS011;10981;45.462;10.974;2022-09-12T09:31:20;1.20;;;1.10;;
21639;SDS011;10981;45.462;10.974;2022-09-12T09:33:50;2.05;;;1.33;;
21639;SDS011;10981;45.462;10.974;2022-09-12T09:36:32;2.28;;;1.15;;
21639;SDS011;10981;45.462;10.974;2022-09-12T09:39:29;1.70;;;0.90;;
21639;SDS011;10981;45.462;10.974;2022-09-12T09:45:10;3.33;;;1.60;;
21639;SDS011;10981;45.462;10.974;2022-09-12T09:47:50;2.95;;;1.60;;
21639;SDS011;10981;45.462;10.974;2022-09-12T09:50:23;2.25;;;1.75;;
21639;SDS011;10981;45.462;10.974;2022-09-12T09:52:51;3.42;;;1.40;;
21639;SDS011;10981;45.462;10.974;2022-09-12T09:55:24;2.72;;;1.40;;
21639;SDS011;10981;45.462;10.974;2022-09-12T09:57:57;4.32;;;1.40;;
21639;SDS011;10981;45.462;10.974;2022-09-12T10:00:30;3.00;;;1.63;;
21639;SDS011;10981;45.462;10.974;2022-09-12T10:05:46;2.45;;;1.40;;
21639;SDS011;10981;45.462;10.974;2022-09-12T10:08:20;5.75;;;2.13;;
21639;SDS011;10981;45.462;10.974;2022-09-12T10:11:05;2.85;;;1.10;;
21639;SDS011;10981;45.462;10.974;2022-09-12T10:16:27;2.92;;;1.35;;
21639;SDS011;10981;45.462;10.974;2022-09-12T10:19:01;3.58;;;1.60;;
21639;SDS011;10981;45.462;10.974;2022-09-12T10:21:31;3.92;;;1.42;;
21639;SDS011;10981;45.462;10.974;2022-09-12T10:26:55;3.35;;;1.35;;
21639;SDS011;10981;45.462;10.974;2022-09-12T10:29:45;2.00;;;1.38;;
21639;SDS011;10981;45.462;10.974;2022-09-12T10:32:33;2.85;;;1.67;;
21639;SDS011;10981;45.462;10.974;2022-09-12T10:35:06;2.38;;;1.42;;
21639;SDS011;10981;45.462;10.974;2022-09-12T10:40:26;4.55;;;1.50;;
21639;SDS011;10981;45.462;10.974;2022-09-12T10:42:59;1.95;;;1.23;;
21639;SDS011;10981;45.462;10.974;2022-09-12T10:45:35;2.20;;;1.17;;
21639;SDS011;10981;45.462;10.974;2022-09-12T10:48:21;1.30;;;1.20;;
21639;SDS011;10981;45.462;10.974;2022-09-12T10:50:58;2.38;;;1.15;;
21639;SDS011;10981;45.462;10.974;2022-09-12T10:53:31;3.45;;;1.30;;
21639;SDS011;10981;45.462;10.974;2022-09-12T11:26:16;7.82;;;2.00;;
21639;SDS011;10981;45.462;10.974;2022-09-12T11:34:07;4.95;;;1.90;;
21639;SDS011;10981;45.462;10.974;2022-09-12T11:39:31;3.80;;;1.40;;
21639;SDS011;10981;45.462;10.974;2022-09-12T11:42:08;4.45;;;1.60;;
21639;SDS011;10981;45.462;10.974;2022-09-12T11:44:44;5.10;;;1.65;;
21639;SDS011;10981;45.462;10.974;2022-09-12T11:47:30;4.40;;;1.92;;
21639;SDS011;10981;45.462;10.974;2022-09-12T11:50:03;4.28;;;1.80;;
21639;SDS011;10981;45.462;10.974;2022-09-12T11:52:41;2.75;;;2.03;;
21639;SDS011;10981;45.462;10.974;2022-09-12T11:55:20;5.40;;;1.92;;
21639;SDS011;10981;45.462;10.974;2022-09-12T11:57:57;3.22;;;2.28;;
21639;SDS011;10981;45.462;10.974;2022-09-12T12:03:15;3.95;;;2.72;;
21639;SDS011;10981;45.462;10.974;2022-09-12T12:06:26;5.57;;;2.85;;
21639;SDS011;10981;45.462;10.974;2022-09-12T12:08:58;2.17;;;1.98;;
21639;SDS011;10981;45.462;10.974;2022-09-12T12:11:31;3.72;;;2.97;;
21639;SDS011;10981;45.462;10.974;2022-09-12T12:14:17;5.15;;;2.45;;
21639;SDS011;10981;45.462;10.974;2022-09-12T12:16:50;5.88;;;2.88;;
21639;SDS011;10981;45.462;10.974;2022-09-12T12:21:47;5.15;;;1.92;;
21639;SDS011;10981;45.462;10.974;2022-09-12T12:24:20;2.13;;;1.80;;
21639;SDS011;10981;45.462;10.974;2022-09-12T12:27:04;4.15;;;2.30;;
21639;SDS011;10981;45.462;10.974;2022-09-12T12:29:51;4.55;;;2.20;;
21639;SDS011;10981;45.462;10.974;2022-09-12T12:32:20;7.55;;;2.35;;
21639;SDS011;10981;45.462;10.974;2022-09-12T12:34:49;1.98;;;1.65;;
21639;SDS011;10981;45.462;10.974;2022-09-12T12:39:56;2.72;;;2.10;;
21639;SDS011;10981;45.462;10.974;2022-09-12T12:45:43;5.32;;;2.08;;
21639;SDS011;10981;45.462;10.974;2022-09-12T12:47:54;8.75;;;2.08;;
21639;SDS011;10981;45.462;10.974;2022-09-12T12:50:33;2.92;;;1.75;;
21639;SDS011;10981;45.462;10.974;2022-09-12T12:56:02;2.08;;;1.88;;
21639;SDS011;10981;45.462;10.974;2022-09-12T12:58:32;3.03;;;1.85;;
21639;SDS011;10981;45.462;10.974;2022-09-12T13:03:46;1.98;;;1.70;;
21639;SDS011;10981;45.462;10.974;2022-09-12T13:06:30;3.05;;;1.80;;
21639;SDS011;10981;45.462;10.974;2022-09-12T13:09:26;2.73;;;1.97;;
21639;SDS011;10981;45.462;10.974;2022-09-12T13:11:54;3.00;;;2.25;;
21639;SDS011;10981;45.462;10.974;2022-09-12T13:22:55;2.00;;;1.80;;
21639;SDS011;10981;45.462;10.974;2022-09-12T13:25:25;2.67;;;1.80;;
21639;SDS011;10981;45.462;10.974;2022-09-12T13:28:05;2.78;;;2.47;;
21639;SDS011;10981;45.462;10.974;2022-09-12T13:31:02;4.88;;;2.10;;
21639;SDS011;10981;45.462;10.974;2022-09-12T13:34:03;1.65;;;1.30;;
21639;SDS011;10981;45.462;10.974;2022-09-12T13:39:19;6.38;;;1.70;;
21639;SDS011;10981;45.462;10.974;2022-09-12T13:44:25;3.33;;;2.00;;
21639;SDS011;10981;45.462;10.974;2022-09-12T13:46:58;2.10;;;1.92;;
21639;SDS011;10981;45.462;10.974;2022-09-12T13:49:33;6.88;;;1.83;;
21639;SDS011;10981;45.462;10.974;2022-09-12T13:52:08;2.60;;;1.38;;
21639;SDS011;10981;45.462;10.974;2022-09-12T13:54:51;2.40;;;2.20;;
21639;SDS011;10981;45.462;10.974;2022-09-12T14:00:03;2.08;;;1.73;;
21639;SDS011;10981;45.462;10.974;2022-09-12T14:02:46;4.68;;;2.45;;
21639;SDS011;10981;45.462;10.974;2022-09-12T14:05:19;3.97;;;1.98;;
21639;SDS011;10981;45.462;10.974;2022-09-12T14:12:59;5.18;;;1.90;;
21639;SDS011;10981;45.462;10.974;2022-09-12T14:15:31;1.67;;;1.58;;
21639;SDS011;10981;45.462;10.974;2022-09-12T14:20:35;3.45;;;1.55;;
21639;SDS011;10981;45.462;10.974;2022-09-12T14:23:08;3.17;;;1.98;;
21639;SDS011;10981;45.462;10.974;2022-09-12T14:25:47;3.55;;;2.20;;
21639;SDS011;10981;45.462;10.974;2022-09-12T14:28:17;3.40;;;2.35;;
21639;SDS011;10981;45.462;10.974;2022-09-12T14:31:00;5.00;;;1.92;;
21639;SDS011;10981;45.462;10.974;2022-09-12T14:33:45;3.75;;;2.78;;
21639;SDS011;10981;45.462;10.974;2022-09-12T14:38:57;3.33;;;1.85;;
21639;SDS011;10981;45.462;10.974;2022-09-12T14:41:29;6.20;;;2.20;;
21639;SDS011;10981;45.462;10.974;2022-09-12T14:43:59;3.28;;;2.30;;
21639;SDS011;10981;45.462;10.974;2022-09-12T14:49:05;3.78;;;2.22;;
21639;SDS011;10981;45.462;10.974;2022-09-12T14:51:39;3.15;;;2.00;;
21639;SDS011;10981;45.462;10.974;2022-09-12T14:57:03;5.05;;;2.42;;
21639;SDS011;10981;45.462;10.974;2022-09-12T15:10:04;5.80;;;2.53;;
21639;SDS011;10981;45.462;10.974;2022-09-12T15:15:43;2.63;;;2.42;;
21639;SDS011;10981;45.462;10.974;2022-09-12T15:18:14;4.20;;;1.70;;
21639;SDS011;10981;45.462;10.974;2022-09-12T15:20:43;3.05;;;2.05;;
21639;SDS011;10981;45.462;10.974;2022-09-12T15:24:02;5.97;;;2.20;;
21639;SDS011;10981;45.462;10.974;2022-09-12T15:26:11;3.58;;;1.98;;
21639;SDS011;10981;45.462;10.974;2022-09-12T15:28:50;2.92;;;1.92;;
21639;SDS011;10981;45.462;10.974;2022-09-12T15:31:25;2.90;;;2.03;;
21639;SDS011;10981;45.462;10.974;2022-09-12T15:33:56;5.00;;;1.85;;
21639;SDS011;10981;45.462;10.974;2022-09-12T15:36:26;3.03;;;2.20;;
21639;SDS011;10981;45.462;10.974;2022-09-12T15:38:55;2.80;;;2.10;;
21639;SDS011;10981;45.462;10.974;2022-09-12T15:41:33;4.40;;;2.10;;
21639;SDS011;10981;45.462;10.974;2022-09-12T15:44:06;4.47;;;2.28;;
21639;SDS011;10981;45.462;10.974;2022-09-12T15:46:37;4.00;;;2.00;;
21639;SDS011;10981;45.462;10.974;2022-09-12T15:49:06;4.65;;;2.03;;
21639;SDS011;10981;45.462;10.974;2022-09-12T15:51:34;6.75;;;2.22;;
21639;SDS011;10981;45.462;10.974;2022-09-12T15:54:05;3.80;;;2.20;;
21639;SDS011;10981;45.462;10.974;2022-09-12T15:56:37;2.78;;;2.03;;
21639;SDS011;10981;45.462;10.974;2022-09-12T15:59:05;3.15;;;1.63;;
21639;SDS011;10981;45.462;10.974;2022-09-12T16:01:34;3.65;;;1.70;;
21639;SDS011;10981;45.462;10.974;2022-09-12T16:04:02;3.83;;;1.95;;
21639;SDS011;10981;45.462;10.974;2022-09-12T16:06:43;3.67;;;2.10;;
21639;SDS011;10981;45.462;10.974;2022-09-12T16:09:12;3.88;;;1.90;;
21639;SDS011;10981;45.462;10.974;2022-09-12T16:11:43;5.25;;;2.20;;
21639;SDS011;10981;45.462;10.974;2022-09-12T16:14:12;5.15;;;1.88;;
21639;SDS011;10981;45.462;10.974;2022-09-12T16:16:41;3.63;;;1.80;;
21639;SDS011;10981;45.462;10.974;2022-09-12T16:19:14;3.13;;;1.95;;
21639;SDS011;10981;45.462;10.974;2022-09-12T16:21:42;1.80;;;1.70;;
21639;SDS011;10981;45.462;10.974;2022-09-12T16:24:11;2.85;;;1.60;;
21639;SDS011;10981;45.462;10.974;2022-09-12T16:26:39;4.75;;;2.05;;
21639;SDS011;10981;45.462;10.974;2022-09-12T16:29:09;2.22;;;1.83;;
21639;SDS011;10981;45.462;10.974;2022-09-12T16:31:39;5.53;;;1.90;;
21639;SDS011;10981;45.462;10.974;2022-09-12T16:34:09;2.03;;;1.83;;
21639;SDS011;10981;45.462;10.974;2022-09-12T16:36:40;3.40;;;1.90;;
21639;SDS011;10981;45.462;10.974;2022-09-12T16:39:11;2.53;;;1.80;;
21639;SDS011;10981;45.462;10.974;2022-09-12T16:41:39;3.75;;;1.67;;
21639;SDS011;10981;45.462;10.974;2022-09-12T16:44:08;4.78;;;1.83;;
21639;SDS011;10981;45.462;10.974;2022-09-12T16:46:36;3.05;;;1.70;;
21639;SDS011;10981;45.462;10.974;2022-09-12T16:49:06;5.78;;;1.83;;
21639;SDS011;10981;45.462;10.974;2022-09-12T16:51:36;2.65;;;1.77;;
21639;SDS011;10981;45.462;10.974;2022-09-12T16:54:04;6.40;;;2.00;;
21639;SDS011;10981;45.462;10.974;2022-09-12T16:56:32;4.80;;;2.00;;
21639;SDS011;10981;45.462;10.974;2022-09-12T16:59:01;2.22;;;2.03;;
21639;SDS011;10981;45.462;10.974;2022-09-12T17:01:31;4.53;;;2.10;;
21639;SDS011;10981;45.462;10.974;2022-09-12T17:04:01;3.78;;;2.13;;
21639;SDS011;10981;45.462;10.974;2022-09-12T17:06:29;2.60;;;2.08;;
21639;SDS011;10981;45.462;10.974;2022-09-12T17:08:59;5.85;;;2.22;;
21639;SDS011;10981;45.462;10.974;2022-09-12T17:11:31;6.63;;;2.30;;
21639;SDS011;10981;45.462;10.974;2022-09-12T17:14:02;5.18;;;2.40;;
21639;SDS011;10981;45.462;10.974;2022-09-12T17:16:37;4.38;;;2.03;;
21639;SDS011;10981;45.462;10.974;2022-09-12T17:19:07;7.15;;;2.22;;
21639;SDS011;10981;45.462;10.974;2022-09-12T17:21:39;10.10;;;2.55;;
21639;SDS011;10981;45.462;10.974;2022-09-12T17:24:07;7.03;;;2.17;;
21639;SDS011;10981;45.462;10.974;2022-09-12T17:26:37;6.20;;;2.42;;
21639;SDS011;10981;45.462;10.974;2022-09-12T17:29:05;7.30;;;2.63;;
21639;SDS011;10981;45.462;10.974;2022-09-12T17:31:33;3.83;;;2.00;;
21639;SDS011;10981;45.462;10.974;2022-09-12T17:34:01;3.03;;;2.17;;
21639;SDS011;10981;45.462;10.974;2022-09-12T17:36:30;5.20;;;2.15;;
21639;SDS011;10981;45.462;10.974;2022-09-12T17:38:58;3.38;;;2.13;;
21639;SDS011;10981;45.462;10.974;2022-09-12T17:41:29;3.17;;;2.40;;
21639;SDS011;10981;45.462;10.974;2022-09-12T17:43:58;6.18;;;2.95;;
21639;SDS011;10981;45.462;10.974;2022-09-12T17:46:30;7.95;;;3.08;;
21639;SDS011;10981;45.462;10.974;2022-09-12T17:49:02;4.33;;;3.07;;
21639;SDS011;10981;45.462;10.974;2022-09-12T17:51:31;6.20;;;2.97;;
21639;SDS011;10981;45.462;10.974;2022-09-12T17:54:08;3.22;;;1.95;;
21639;SDS011;10981;45.462;10.974;2022-09-12T17:56:42;6.88;;;3.08;;
21639;SDS011;10981;45.462;10.974;2022-09-12T17:59:14;3.28;;;2.45;;
21639;SDS011;10981;45.462;10.974;2022-09-12T18:01:44;6.30;;;2.67;;
21639;SDS011;10981;45.462;10.974;2022-09-12T18:04:31;6.07;;;3.30;;
21639;SDS011;10981;45.462;10.974;2022-09-12T18:06:59;5.05;;;3.30;;
21639;SDS011;10981;45.462;10.974;2022-09-12T18:09:27;4.93;;;2.88;;
21639;SDS011;10981;45.462;10.974;2022-09-12T18:11:56;8.63;;;2.83;;
21639;SDS011;10981;45.462;10.974;2022-09-12T18:14:24;5.20;;;2.42;;